sensor_id;sensor_type;location;lat;lon;timestamp;pressure;altitude;pressure_sealevel;temperature;humidity
76632;BME280;65526;48.578;-4.520;2023-09-12T00:00:37;101189.38;;;19.96;100.00
76632;BME280;65526;48.578;-4.520;2023-09-12T00:03:03;101205.50;;;19.77;100.00
76632;BME280;65526;48.578;-4.520;2023-09-12T00:05:30;101193.44;;;19.91;100.00
76632;BME280;65526;48.578;-4.520;2023-09-12T00:07:56;101234.13;;;19.90;100.00
76632;BME280;65526;48.578;-4.520;2023-09-12T00:10:23;101063.16;;;18.83;100.00
76632;BME280;65526;48.578;-4.520;2023-09-12T00:12:49;101226.47;;;19.94;100.00
76632;BME280;65526;48.578;-4.520;2023-09-12T00:15:16;101177.28;;;19.95;100.00
76632;BME280;65526;48.578;-4.520;2023-09-12T00:17:42;101254.31;;;19.99;100.00
76632;BME280;65526;48.578;-4.520;2023-09-12T00:20:09;101178.50;;;20.01;100.00
76632;BME280;65526;48.578;-4.520;2023-09-12T00:22:35;101228.09;;;20.02;100.00
76632;BME280;65526;48.578;-4.520;2023-09-12T00:25:02;100934.31;;;18.41;100.00
76632;BME280;65526;48.578;-4.520;2023-09-12T00:27:29;101218.03;;;20.05;100.00
76632;BME280;65526;48.578;-4.520;2023-09-12T00:29:55;101214.78;;;20.10;100.00
76632;BME280;65526;48.578;-4.520;2023-09-12T00:32:21;101203.09;;;20.11;100.00
76632;BME280;65526;48.578;-4.520;2023-09-12T00:34:48;100603.09;;;16.38;100.00
76632;BME280;65526;48.578;-4.520;2023-09-12T00:37:14;101233.75;;;20.13;100.00
76632;BME280;65526;48.578;-4.520;2023-09-12T00:39:40;100421.38;;;15.20;100.00
76632;BME280;65526;48.578;-4.520;2023-09-12T00:42:07;101143.44;;;19.53;100.00
76632;BME280;65526;48.578;-4.520;2023-09-12T00:44:33;100616.00;;;16.53;100.00
76632;BME280;65526;48.578;-4.520;2023-09-12T00:47:01;100955.63;;;18.38;100.00
76632;BME280;65526;48.578;-4.520;2023-09-12T00:49:29;100658.50;;;16.55;100.00
76632;BME280;65526;48.578;-4.520;2023-09-12T00:51:57;101183.34;;;20.18;100.00
76632;BME280;65526;48.578;-4.520;2023-09-12T00:54:25;100748.78;;;17.36;100.00
76632;BME280;65526;48.578;-4.520;2023-09-12T00:56:51;101199.88;;;20.16;100.00
76632;BME280;65526;48.578;-4.520;2023-09-12T00:59:18;101223.28;;;20.13;100.00
76632;BME280;65526;48.578;-4.520;2023-09-12T01:01:45;101181.31;;;20.15;100.00
76632;BME280;65526;48.578;-4.520;2023-09-12T01:04:12;100578.66;;;16.35;100.00
76632;BME280;65526;48.578;-4.520;2023-09-12T01:06:38;100721.22;;;16.84;100.00
76632;BME280;65526;48.578;-4.520;2023-09-12T01:09:05;100836.47;;;17.70;100.00
76632;BME280;65526;48.578;-4.520;2023-09-12T01:11:32;101178.50;;;20.08;100.00
76632;BME280;65526;48.578;-4.520;2023-09-12T01:13:58;100811.47;;;17.58;100.00
76632;BME280;65526;48.578;-4.520;2023-09-12T01:16:25;101250.66;;;20.09;100.00
76632;BME280;65526;48.578;-4.520;2023-09-12T01:18:51;100801.78;;;17.45;100.00
76632;BME280;65526;48.578;-4.520;2023-09-12T01:24:27;101032.22;;;19.04;100.00
76632;BME280;65526;48.578;-4.520;2023-09-12T01:27:19;100990.28;;;18.56;100.00
76632;BME280;65526;48.578;-4.520;2023-09-12T01:29:46;101209.53;;;20.01;100.00
76632;BME280;65526;48.578;-4.520;2023-09-12T01:32:16;100747.41;;;17.02;100.00
76632;BME280;65526;48.578;-4.520;2023-09-12T01:34:44;101199.88;;;20.06;100.00
76632;BME280;65526;48.578;-4.520;2023-09-12T01:37:10;100833.19;;;17.61;100.00
76632;BME280;65526;48.578;-4.520;2023-09-12T01:39:37;100975.03;;;18.65;100.00
76632;BME280;65526;48.578;-4.520;2023-09-12T01:42:04;100498.19;;;15.77;100.00
76632;BME280;65526;48.578;-4.520;2023-09-12T01:44:32;100653.84;;;16.77;100.00
76632;BME280;65526;48.578;-4.520;2023-09-12T01:47:03;100763.66;;;17.48;100.00
76632;BME280;65526;48.578;-4.520;2023-09-12T01:49:31;101198.28;;;20.05;100.00
76632;BME280;65526;48.578;-4.520;2023-09-12T01:51:59;100806.66;;;17.59;100.00
76632;BME280;65526;48.578;-4.520;2023-09-12T01:54:27;101039.03;;;18.85;100.00
76632;BME280;65526;48.578;-4.520;2023-09-12T01:56:56;100800.16;;;17.37;100.00
76632;BME280;65526;48.578;-4.520;2023-09-12T01:59:25;100854.03;;;17.57;100.00
76632;BME280;65526;48.578;-4.520;2023-09-12T02:01:51;101242.59;;;20.01;100.00
76632;BME280;65526;48.578;-4.520;2023-09-12T02:04:18;101230.91;;;19.99;100.00
76632;BME280;65526;48.578;-4.520;2023-09-12T02:06:44;101197.47;;;19.97;100.00
76632;BME280;65526;48.578;-4.520;2023-09-12T02:09:11;101218.00;;;19.94;100.00
76632;BME280;65526;48.578;-4.520;2023-09-12T02:11:37;100964.56;;;18.58;100.00
76632;BME280;65526;48.578;-4.520;2023-09-12T02:14:04;101208.75;;;19.90;100.00
76632;BME280;65526;48.578;-4.520;2023-09-12T02:16:31;101183.75;;;19.96;100.00
76632;BME280;65526;48.578;-4.520;2023-09-12T02:18:57;100786.06;;;17.33;100.00
76632;BME280;65526;48.578;-4.520;2023-09-12T02:21:24;100759.97;;;17.26;100.00
76632;BME280;65526;48.578;-4.520;2023-09-12T02:23:50;100601.38;;;16.19;100.00
76632;BME280;65526;48.578;-4.520;2023-09-12T02:26:19;101006.63;;;18.33;100.00
76632;BME280;65526;48.578;-4.520;2023-09-12T02:28:45;100714.41;;;16.81;100.00
76632;BME280;65526;48.578;-4.520;2023-09-12T02:31:12;100876.97;;;17.66;100.00
76632;BME280;65526;48.578;-4.520;2023-09-12T02:33:39;100448.78;;;15.48;100.00
76632;BME280;65526;48.578;-4.520;2023-09-12T02:36:06;100607.13;;;16.40;100.00
76632;BME280;65526;48.578;-4.520;2023-09-12T02:38:32;101166.03;;;19.99;100.00
76632;BME280;65526;48.578;-4.520;2023-09-12T02:40:59;101226.06;;;19.96;100.00
76632;BME280;65526;48.578;-4.520;2023-09-12T02:43:25;100948.00;;;18.53;100.00
76632;BME280;65526;48.578;-4.520;2023-09-12T02:45:52;101232.91;;;19.95;100.00
76632;BME280;65526;48.578;-4.520;2023-09-12T02:48:18;101047.47;;;18.92;100.00
76632;BME280;65526;48.578;-4.520;2023-09-12T02:50:45;100576.91;;;16.12;100.00
76632;BME280;65526;48.578;-4.520;2023-09-12T02:53:11;100722.53;;;17.04;100.00
76632;BME280;65526;48.578;-4.520;2023-09-12T02:55:42;100610.97;;;16.14;100.00
76632;BME280;65526;48.578;-4.520;2023-09-12T02:58:09;101191.03;;;19.93;100.00
76632;BME280;65526;48.578;-4.520;2023-09-12T03:00:39;100762.38;;;17.31;100.00
76632;BME280;65526;48.578;-4.520;2023-09-12T03:03:07;100734.69;;;17.22;100.00
76632;BME280;65526;48.578;-4.520;2023-09-12T03:05:35;100921.03;;;18.41;100.00
76632;BME280;65526;48.578;-4.520;2023-09-12T03:08:02;100736.28;;;17.27;100.00
76632;BME280;65526;48.578;-4.520;2023-09-12T03:10:30;100625.91;;;16.29;100.00
76632;BME280;65526;48.578;-4.520;2023-09-12T03:12:56;101225.66;;;19.90;100.00
76632;BME280;65526;48.578;-4.520;2023-09-12T03:15:23;100913.72;;;18.05;100.00
76632;BME280;65526;48.578;-4.520;2023-09-12T03:17:49;101178.91;;;19.89;100.00
76632;BME280;65526;48.578;-4.520;2023-09-12T03:20:15;100917.00;;;18.28;100.00
76632;BME280;65526;48.578;-4.520;2023-09-12T03:22:42;100833.88;;;17.37;100.00
76632;BME280;65526;48.578;-4.520;2023-09-12T03:25:08;101146.69;;;19.65;100.00
76632;BME280;65526;48.578;-4.520;2023-09-12T03:27:35;101068.41;;;18.95;100.00
76632;BME280;65526;48.578;-4.520;2023-09-12T03:30:02;100787.69;;;17.38;100.00
76632;BME280;65526;48.578;-4.520;2023-09-12T03:32:29;101181.31;;;19.87;100.00
76632;BME280;65526;48.578;-4.520;2023-09-12T03:34:56;100721.25;;;16.87;100.00
76632;BME280;65526;48.578;-4.520;2023-09-12T03:37:22;101159.97;;;19.83;100.00
76632;BME280;65526;48.578;-4.520;2023-09-12T03:39:53;101235.31;;;19.78;100.00
76632;BME280;65526;48.578;-4.520;2023-09-12T03:42:20;100472.63;;;15.27;100.00
76632;BME280;65526;48.578;-4.520;2023-09-12T03:44:46;101166.00;;;19.74;100.00
76632;BME280;65526;48.578;-4.520;2023-09-12T03:47:13;101197.84;;;19.71;100.00
76632;BME280;65526;48.578;-4.520;2023-09-12T03:49:39;101143.84;;;19.55;100.00
76632;BME280;65526;48.578;-4.520;2023-09-12T03:52:05;100763.84;;;16.96;100.00
76632;BME280;65526;48.578;-4.520;2023-09-12T03:54:32;101178.06;;;19.57;100.00
76632;BME280;65526;48.578;-4.520;2023-09-12T03:56:58;101212.34;;;19.59;100.00
76632;BME280;65526;48.578;-4.520;2023-09-12T03:59:25;101147.47;;;19.59;100.00
76632;BME280;65526;48.578;-4.520;2023-09-12T04:01:51;100626.47;;;15.98;100.00
76632;BME280;65526;48.578;-4.520;2023-09-12T04:04:17;101143.84;;;19.58;100.00
76632;BME280;65526;48.578;-4.520;2023-09-12T04:06:44;100751.88;;;17.14;100.00
76632;BME280;65526;48.578;-4.520;2023-09-12T04:09:10;101139.41;;;19.61;100.00
76632;BME280;65526;48.578;-4.520;2023-09-12T04:11:37;101011.91;;;18.45;100.00
76632;BME280;65526;48.578;-4.520;2023-09-12T04:14:03;101137.00;;;19.63;100.00
76632;BME280;65526;48.578;-4.520;2023-09-12T04:16:29;100601.50;;;15.78;100.00
76632;BME280;65526;48.578;-4.520;2023-09-12T04:18:56;101191.78;;;19.65;100.00
76632;BME280;65526;48.578;-4.520;2023-09-12T04:21:22;100724.56;;;17.03;100.00
76632;BME280;65526;48.578;-4.520;2023-09-12T04:23:49;100878.31;;;18.00;100.00
76632;BME280;65526;48.578;-4.520;2023-09-12T04:26:16;100589.09;;;15.79;100.00
76632;BME280;65526;48.578;-4.520;2023-09-12T04:28:43;101023.66;;;18.62;100.00
76632;BME280;65526;48.578;-4.520;2023-09-12T04:31:09;101188.16;;;19.58;100.00
76632;BME280;65526;48.578;-4.520;2023-09-12T04:33:36;101081.28;;;18.92;100.00
76632;BME280;65526;48.578;-4.520;2023-09-12T04:36:03;100771.94;;;17.12;100.00
76632;BME280;65526;48.578;-4.520;2023-09-12T04:38:30;100720.06;;;16.92;100.00
76632;BME280;65526;48.578;-4.520;2023-09-12T04:40:56;100745.41;;;17.06;100.00
76632;BME280;65526;48.578;-4.520;2023-09-12T04:43:24;100849.13;;;17.36;100.00
76632;BME280;65526;48.578;-4.520;2023-09-12T04:45:50;100742.16;;;16.93;100.00
76632;BME280;65526;48.578;-4.520;2023-09-12T04:48:16;101164.41;;;19.69;100.00
76632;BME280;65526;48.578;-4.520;2023-09-12T04:50:43;100762.31;;;17.13;100.00
76632;BME280;65526;48.578;-4.520;2023-09-12T04:53:10;100962.88;;;18.43;100.00
76632;BME280;65526;48.578;-4.520;2023-09-12T04:55:37;101197.00;;;19.60;100.00
76632;BME280;65526;48.578;-4.520;2023-09-12T04:58:05;101178.06;;;19.57;100.00
76632;BME280;65526;48.578;-4.520;2023-09-12T05:00:33;100935.03;;;18.20;100.00
76632;BME280;65526;48.578;-4.520;2023-09-12T05:03:00;101156.28;;;19.47;100.00
76632;BME280;65526;48.578;-4.520;2023-09-12T05:05:27;101174.00;;;19.44;100.00
76632;BME280;65526;48.578;-4.520;2023-09-12T05:07:53;101165.50;;;19.40;100.00
76632;BME280;65526;48.578;-4.520;2023-09-12T05:10:20;100482.59;;;15.21;100.00
76632;BME280;65526;48.578;-4.520;2023-09-12T05:12:47;101146.19;;;19.35;100.00
76632;BME280;65526;48.578;-4.520;2023-09-12T05:15:14;100729.13;;;16.64;100.00
76632;BME280;65526;48.578;-4.520;2023-09-12T05:17:40;101166.72;;;19.28;100.00
76632;BME280;65526;48.578;-4.520;2023-09-12T05:20:07;100736.66;;;16.49;100.00
76632;BME280;65526;48.578;-4.520;2023-09-12T05:22:34;101142.94;;;19.22;100.00
76632;BME280;65526;48.578;-4.520;2023-09-12T05:25:00;100797.53;;;16.96;100.00
76632;BME280;65526;48.578;-4.520;2023-09-12T05:27:27;101155.03;;;19.19;100.00
76632;BME280;65526;48.578;-4.520;2023-09-12T05:29:53;100987.59;;;17.98;100.00
76632;BME280;65526;48.578;-4.520;2023-09-12T05:32:19;101151.38;;;19.15;100.00
76632;BME280;65526;48.578;-4.520;2023-09-12T05:34:46;100494.19;;;14.79;100.00
76632;BME280;65526;48.578;-4.520;2023-09-12T05:37:16;101177.56;;;19.19;100.00
76632;BME280;65526;48.578;-4.520;2023-09-12T05:39:42;100933.88;;;17.52;100.00
76632;BME280;65526;48.578;-4.520;2023-09-12T05:42:09;100518.19;;;14.84;100.00
76632;BME280;65526;48.578;-4.520;2023-09-12T05:44:35;101169.88;;;19.13;100.00
76632;BME280;65526;48.578;-4.520;2023-09-12T05:47:02;101226.22;;;19.13;100.00
76632;BME280;65526;48.578;-4.520;2023-09-12T05:49:28;100911.00;;;17.50;100.00
76632;BME280;65526;48.578;-4.520;2023-09-12T05:51:55;100985.03;;;17.72;100.00
76632;BME280;65526;48.578;-4.520;2023-09-12T05:54:21;101205.72;;;19.16;100.00
76632;BME280;65526;48.578;-4.520;2023-09-12T05:56:48;101032.28;;;18.14;100.00
76632;BME280;65526;48.578;-4.520;2023-09-12T05:59:14;100992.31;;;17.76;100.00
76632;BME280;65526;48.578;-4.520;2023-09-12T06:01:41;101203.72;;;19.16;100.00
76632;BME280;65526;48.578;-4.520;2023-09-12T06:04:07;101199.28;;;19.15;100.00
76632;BME280;65526;48.578;-4.520;2023-09-12T06:06:34;100788.13;;;16.71;100.00
76632;BME280;65526;48.578;-4.520;2023-09-12T06:09:00;100769.31;;;16.28;100.00
76632;BME280;65526;48.578;-4.520;2023-09-12T06:11:27;100839.66;;;17.00;100.00
76632;BME280;65526;48.578;-4.520;2023-09-12T06:13:53;101210.13;;;19.10;100.00
76632;BME280;65526;48.578;-4.520;2023-09-12T06:16:19;100756.59;;;16.41;100.00
76632;BME280;65526;48.578;-4.520;2023-09-12T06:18:46;100977.78;;;17.64;100.00
76632;BME280;65526;48.578;-4.520;2023-09-12T06:21:14;101209.31;;;19.09;100.00
76632;BME280;65526;48.578;-4.520;2023-09-12T06:23:41;100928.22;;;17.41;100.00
76632;BME280;65526;48.578;-4.520;2023-09-12T06:26:07;100771.00;;;16.39;100.00
76632;BME280;65526;48.578;-4.520;2023-09-12T06:28:33;100790.66;;;16.39;100.00
76632;BME280;65526;48.578;-4.520;2023-09-12T06:31:00;101239.88;;;19.07;100.00
76632;BME280;65526;48.578;-4.520;2023-09-12T06:33:26;101232.63;;;19.06;100.00
76632;BME280;65526;48.578;-4.520;2023-09-12T06:35:52;101212.53;;;19.04;100.00
76632;BME280;65526;48.578;-4.520;2023-09-12T06:38:20;100764.47;;;16.24;100.00
76632;BME280;65526;48.578;-4.520;2023-09-12T06:40:46;100602.38;;;15.05;100.00
76632;BME280;65526;48.578;-4.520;2023-09-12T06:43:13;100802.59;;;16.29;100.00
76632;BME280;65526;48.578;-4.520;2023-09-12T06:45:40;100995.28;;;17.43;100.00
76632;BME280;65526;48.578;-4.520;2023-09-12T06:48:07;101285.75;;;19.00;100.00
76632;BME280;65526;48.578;-4.520;2023-09-12T06:50:34;101262.00;;;19.02;100.00
76632;BME280;65526;48.578;-4.520;2023-09-12T06:53:00;100621.75;;;15.21;100.00
76632;BME280;65526;48.578;-4.520;2023-09-12T06:55:27;100518.38;;;14.61;100.00
76632;BME280;65526;48.578;-4.520;2023-09-12T06:57:54;100772.81;;;16.14;100.00
76632;BME280;65526;48.578;-4.520;2023-09-12T07:00:20;101221.78;;;19.05;100.00
76632;BME280;65526;48.578;-4.520;2023-09-12T07:02:47;101026.63;;;17.52;100.00
76632;BME280;65526;48.578;-4.520;2023-09-12T07:05:13;100753.47;;;16.02;100.00
76632;BME280;65526;48.578;-4.520;2023-09-12T07:07:39;101319.22;;;19.09;100.00
76632;BME280;65526;48.578;-4.520;2023-09-12T07:10:06;100809.53;;;16.46;100.00
76632;BME280;65526;48.578;-4.520;2023-09-12T07:12:33;101262.47;;;19.14;100.00
76632;BME280;65526;48.578;-4.520;2023-09-12T07:15:00;101268.44;;;19.02;100.00
76632;BME280;65526;48.578;-4.520;2023-09-12T07:17:28;100980.91;;;17.55;100.00
76632;BME280;65526;48.578;-4.520;2023-09-12T07:19:54;101150.66;;;18.49;100.00
76632;BME280;65526;48.578;-4.520;2023-09-12T07:22:20;101023.56;;;17.68;100.00
76632;BME280;65526;48.578;-4.520;2023-09-12T07:24:47;101252.84;;;19.19;100.00
76632;BME280;65526;48.578;-4.520;2023-09-12T07:27:13;101260.47;;;19.11;100.00
76632;BME280;65526;48.578;-4.520;2023-09-12T07:29:40;101285.00;;;19.14;100.00
76632;BME280;65526;48.578;-4.520;2023-09-12T07:32:06;101070.97;;;17.69;100.00
76632;BME280;65526;48.578;-4.520;2023-09-12T07:34:32;101251.59;;;19.13;100.00
76632;BME280;65526;48.578;-4.520;2023-09-12T07:36:59;101323.25;;;19.15;100.00
76632;BME280;65526;48.578;-4.520;2023-09-12T07:39:25;101256.81;;;19.11;100.00
76632;BME280;65526;48.578;-4.520;2023-09-12T07:41:52;100841.38;;;16.23;100.00
76632;BME280;65526;48.578;-4.520;2023-09-12T07:44:18;101266.06;;;19.08;100.00
76632;BME280;65526;48.578;-4.520;2023-09-12T07:46:44;101035.81;;;17.46;100.00
76632;BME280;65526;48.578;-4.520;2023-09-12T07:49:11;101301.00;;;18.96;100.00
76632;BME280;65526;48.578;-4.520;2023-09-12T07:51:37;100778.19;;;15.89;100.00
76632;BME280;65526;48.578;-4.520;2023-09-12T07:54:04;100573.50;;;14.60;100.00
76632;BME280;65526;48.578;-4.520;2023-09-12T07:56:30;101104.41;;;17.81;100.00
76632;BME280;65526;48.578;-4.520;2023-09-12T07:58:57;101086.75;;;17.85;100.00
76632;BME280;65526;48.578;-4.520;2023-09-12T08:01:24;100875.75;;;16.54;100.00
76632;BME280;65526;48.578;-4.520;2023-09-12T08:03:50;101271.19;;;18.88;100.00
76632;BME280;65526;48.578;-4.520;2023-09-12T08:06:17;101320.44;;;19.12;100.00
76632;BME280;65526;48.578;-4.520;2023-09-12T08:08:43;101281.38;;;19.14;100.00
76632;BME280;65526;48.578;-4.520;2023-09-12T08:11:09;100607.72;;;14.80;100.00
76632;BME280;65526;48.578;-4.520;2023-09-12T08:13:36;100918.38;;;16.67;100.00
76632;BME280;65526;48.578;-4.520;2023-09-12T08:16:02;100617.75;;;14.85;100.00
76632;BME280;65526;48.578;-4.520;2023-09-12T08:18:30;100600.75;;;14.67;100.00
76632;BME280;65526;48.578;-4.520;2023-09-12T08:20:57;100857.06;;;16.28;100.00
76632;BME280;65526;48.578;-4.520;2023-09-12T08:23:23;100921.75;;;16.46;100.00
76632;BME280;65526;48.578;-4.520;2023-09-12T08:25:50;101296.56;;;18.91;100.00
76632;BME280;65526;48.578;-4.520;2023-09-12T08:28:16;100891.72;;;16.09;100.00
76632;BME280;65526;48.578;-4.520;2023-09-12T08:30:44;101195.88;;;18.19;100.00
76632;BME280;65526;48.578;-4.520;2023-09-12T08:33:11;100715.03;;;14.95;100.00
76632;BME280;65526;48.578;-4.520;2023-09-12T08:35:38;101333.53;;;18.83;100.00
76632;BME280;65526;48.578;-4.520;2023-09-12T08:38:04;100708.63;;;14.94;100.00
76632;BME280;65526;48.578;-4.520;2023-09-12T08:40:32;100895.88;;;16.22;100.00
76632;BME280;65526;48.578;-4.520;2023-09-12T08:43:01;100890.94;;;16.12;100.00
76632;BME280;65526;48.578;-4.520;2023-09-12T08:45:30;100960.66;;;16.47;100.00
76632;BME280;65526;48.578;-4.520;2023-09-12T08:47:58;100879.00;;;16.19;100.00
76632;BME280;65526;48.578;-4.520;2023-09-12T08:50:26;100822.47;;;15.46;100.00
76632;BME280;65526;48.578;-4.520;2023-09-12T08:52:57;100892.22;;;16.18;100.00
76632;BME280;65526;48.578;-4.520;2023-09-12T08:55:23;100809.63;;;15.42;100.00
76632;BME280;65526;48.578;-4.520;2023-09-12T08:57:51;101084.53;;;17.60;100.00
76632;BME280;65526;48.578;-4.520;2023-09-12T09:00:18;100729.31;;;15.20;100.00
76632;BME280;65526;48.578;-4.520;2023-09-12T09:02:46;101315.19;;;19.10;100.00
76632;BME280;65526;48.578;-4.520;2023-09-12T09:05:13;100994.66;;;16.76;100.00
76632;BME280;65526;48.578;-4.520;2023-09-12T09:07:41;101348.66;;;19.22;100.00
76632;BME280;65526;48.578;-4.520;2023-09-12T09:10:14;101170.81;;;18.00;100.00
76632;BME280;65526;48.578;-4.520;2023-09-12T09:12:43;101383.72;;;19.28;100.00
76632;BME280;65526;48.578;-4.520;2023-09-12T09:15:29;101330.19;;;19.28;100.00
76632;BME280;65526;48.578;-4.520;2023-09-12T09:17:57;100720.94;;;15.53;100.00
76632;BME280;65526;48.578;-4.520;2023-09-12T09:20:30;101332.69;;;19.44;100.00
76632;BME280;65526;48.578;-4.520;2023-09-12T09:23:05;101365.72;;;19.47;100.00
76632;BME280;65526;48.578;-4.520;2023-09-12T09:25:33;100920.56;;;16.47;100.00
76632;BME280;65526;48.578;-4.520;2023-09-12T09:28:15;101341.91;;;19.41;100.00
76632;BME280;65526;48.578;-4.520;2023-09-12T09:30:46;100758.00;;;15.76;100.00
76632;BME280;65526;48.578;-4.520;2023-09-12T09:33:13;101369.72;;;19.43;100.00
76632;BME280;65526;48.578;-4.520;2023-09-12T09:35:46;100899.16;;;16.32;100.00
76632;BME280;65526;48.578;-4.520;2023-09-12T09:38:13;101153.50;;;17.91;100.00
76632;BME280;65526;48.578;-4.520;2023-09-12T09:40:43;100687.91;;;15.36;100.00
76632;BME280;65526;48.578;-4.520;2023-09-12T09:43:10;101413.19;;;19.42;100.00
76632;BME280;65526;48.578;-4.520;2023-09-12T09:45:45;100810.69;;;15.64;100.00
76632;BME280;65526;48.578;-4.520;2023-09-12T09:48:19;101339.53;;;19.47;100.00
76632;BME280;65526;48.578;-4.520;2023-09-12T09:50:46;100968.53;;;16.72;100.00
76632;BME280;65526;48.578;-4.520;2023-09-12T09:53:13;100775.31;;;15.52;100.00
76632;BME280;65526;48.578;-4.520;2023-09-12T09:55:39;100915.63;;;16.33;100.00
76632;BME280;65526;48.578;-4.520;2023-09-12T09:58:06;101360.41;;;19.35;100.00
76632;BME280;65526;48.578;-4.520;2023-09-12T10:00:34;101097.09;;;17.73;100.00
76632;BME280;65526;48.578;-4.520;2023-09-12T10:03:04;101378.53;;;19.34;100.00
76632;BME280;65526;48.578;-4.520;2023-09-12T10:05:32;101112.84;;;17.85;100.00
76632;BME280;65526;48.578;-4.520;2023-09-12T10:07:59;101395.47;;;19.37;100.00
76632;BME280;65526;48.578;-4.520;2023-09-12T10:10:29;100886.06;;;16.06;100.00
76632;BME280;65526;48.578;-4.520;2023-09-12T10:12:57;101422.00;;;19.33;100.00
76632;BME280;65526;48.578;-4.520;2023-09-12T10:15:29;101166.88;;;18.12;100.00
76632;BME280;65526;48.578;-4.520;2023-09-12T10:17:58;101385.34;;;19.29;100.00
76632;BME280;65526;48.578;-4.520;2023-09-12T10:20:42;100992.66;;;16.76;100.00
76632;BME280;65526;48.578;-4.520;2023-09-12T10:23:30;100933.47;;;16.55;100.00
76632;BME280;65526;48.578;-4.520;2023-09-12T10:26:03;101039.66;;;17.23;100.00
76632;BME280;65526;48.578;-4.520;2023-09-12T10:28:30;101368.47;;;19.36;100.00
76632;BME280;65526;48.578;-4.520;2023-09-12T10:30:59;100696.53;;;15.20;100.00
76632;BME280;65526;48.578;-4.520;2023-09-12T10:33:27;101392.34;;;19.46;100.00
76632;BME280;65526;48.578;-4.520;2023-09-12T10:35:57;101116.59;;;17.56;100.00
76632;BME280;65526;48.578;-4.520;2023-09-12T10:38:26;100846.06;;;16.09;100.00
76632;BME280;65526;48.578;-4.520;2023-09-12T10:40:55;100687.50;;;15.34;100.00
76632;BME280;65526;48.578;-4.520;2023-09-12T10:43:23;100987.34;;;17.08;100.00
76632;BME280;65526;48.578;-4.520;2023-09-12T10:45:51;101388.78;;;19.67;100.00
76632;BME280;65526;48.578;-4.520;2023-09-12T10:48:18;101414.97;;;19.64;100.00
76632;BME280;65526;48.578;-4.520;2023-09-12T10:50:45;101400.94;;;19.78;100.00
76632;BME280;65526;48.578;-4.520;2023-09-12T10:53:13;101042.59;;;17.41;100.00
76632;BME280;65526;48.578;-4.520;2023-09-12T10:55:41;101399.75;;;19.79;100.00
76632;BME280;65526;48.578;-4.520;2023-09-12T10:58:09;101395.69;;;19.80;100.00
76632;BME280;65526;48.578;-4.520;2023-09-12T11:00:36;100743.38;;;15.57;100.00
76632;BME280;65526;48.578;-4.520;2023-09-12T11:05:54;101387.22;;;19.73;100.00
76632;BME280;65526;48.578;-4.520;2023-09-12T11:08:21;101049.84;;;17.42;99.56
76632;BME280;65526;48.578;-4.520;2023-09-12T11:11:19;101371.53;;;19.83;100.00
76632;BME280;65526;48.578;-4.520;2023-09-12T11:14:04;101373.97;;;19.88;97.84
76632;BME280;65526;48.578;-4.520;2023-09-12T11:16:32;100968.06;;;17.03;98.00
76632;BME280;65526;48.578;-4.520;2023-09-12T11:19:15;101399.34;;;19.88;97.43
76632;BME280;65526;48.578;-4.520;2023-09-12T11:21:47;101258.28;;;18.87;96.56
76632;BME280;65526;48.578;-4.520;2023-09-12T11:24:15;100817.59;;;16.07;98.62
76632;BME280;65526;48.578;-4.520;2023-09-12T11:26:58;101193.91;;;18.82;99.21
76632;BME280;65526;48.578;-4.520;2023-09-12T11:29:30;100960.69;;;17.35;97.89
76632;BME280;65526;48.578;-4.520;2023-09-12T11:32:00;101392.53;;;19.92;97.19
76632;BME280;65526;48.578;-4.520;2023-09-12T11:34:37;101359.47;;;19.86;98.94
76632;BME280;65526;48.578;-4.520;2023-09-12T11:37:04;101009.28;;;17.39;97.31
76632;BME280;65526;48.578;-4.520;2023-09-12T11:39:32;101162.91;;;18.82;97.38
76632;BME280;65526;48.578;-4.520;2023-09-12T11:42:01;101188.06;;;18.53;97.26
76632;BME280;65526;48.578;-4.520;2023-09-12T11:44:28;101420.03;;;20.13;94.61
76632;BME280;65526;48.578;-4.520;2023-09-12T11:46:59;100908.47;;;16.80;95.11
76632;BME280;65526;48.578;-4.520;2023-09-12T11:49:41;101424.84;;;20.05;95.92
76632;BME280;65526;48.578;-4.520;2023-09-12T11:52:12;100684.88;;;15.52;96.21
76632;BME280;65526;48.578;-4.520;2023-09-12T11:54:40;101119.97;;;18.23;97.11
76632;BME280;65526;48.578;-4.520;2023-09-12T11:57:10;101020.13;;;17.41;96.30
76632;BME280;65526;48.578;-4.520;2023-09-12T11:59:42;101159.25;;;18.12;95.14
76632;BME280;65526;48.578;-4.520;2023-09-12T12:02:11;100890.22;;;16.56;96.63
76632;BME280;65526;48.578;-4.520;2023-09-12T12:04:38;101415.91;;;19.89;95.22
76632;BME280;65526;48.578;-4.520;2023-09-12T12:07:05;101059.78;;;17.76;94.69
76632;BME280;65526;48.578;-4.520;2023-09-12T12:09:32;101382.47;;;20.02;92.40
76632;BME280;65526;48.578;-4.520;2023-09-12T12:12:17;101246.06;;;18.58;92.06
76632;BME280;65526;48.578;-4.520;2023-09-12T12:14:43;101411.91;;;19.97;93.68
76632;BME280;65526;48.578;-4.520;2023-09-12T12:17:12;101195.81;;;18.64;94.05
76632;BME280;65526;48.578;-4.520;2023-09-12T12:19:38;101396.19;;;20.03;94.40
76632;BME280;65526;48.578;-4.520;2023-09-12T12:22:06;100786.09;;;16.24;90.81
76632;BME280;65526;48.578;-4.520;2023-09-12T12:24:37;100901.19;;;16.72;90.81
76632;BME280;65526;48.578;-4.520;2023-09-12T12:27:04;101395.44;;;20.13;90.95
76632;BME280;65526;48.578;-4.520;2023-09-12T12:29:31;101355.72;;;19.57;89.31
76632;BME280;65526;48.578;-4.520;2023-09-12T12:32:00;101427.25;;;20.10;91.03
76632;BME280;65526;48.578;-4.520;2023-09-12T12:34:28;100909.91;;;17.07;89.86
76632;BME280;65526;48.578;-4.520;2023-09-12T12:36:55;100951.16;;;16.99;89.00
76632;BME280;65526;48.578;-4.520;2023-09-12T12:39:22;101054.53;;;17.75;89.31